Time;durP1;ratioP1;P1;durP2;ratioP2;P2;SDS_P1;SDS_P2;PMS_P1;PMS_P2;Temp;Humidity;BMP_temperature;BMP_pressure;BME280_temperature;BME280_humidity;BME280_pressure;Samples;Min_cycle;Max_cycle;Signal;HPM_P1;HPM_P2
2023/11/18 00:00:37;;;;;;;13.13;7.13;;;4.50;99.90;;;;;;4970647;28;20030;-82
2023/11/18 00:03:03;;;;;;;14.25;7.55;;;4.60;99.90;;;;;;4978158;28;20438;-82
2023/11/18 00:05:29;;;;;;;12.70;6.97;;;4.60;99.90;;;;;;4995931;28;20129;-83
2023/11/18 00:07:55;;;;;;;17.75;8.80;;;4.70;99.90;;;;;;4983164;28;20026;-84
2023/11/18 00:10:20;;;;;;;15.95;8.55;;;4.70;99.90;;;;;;4985983;28;20050;-84
2023/11/18 00:12:46;;;;;;;16.55;8.82;;;4.70;99.90;;;;;;4986563;28;20030;-83
2023/11/18 00:15:12;;;;;;;14.65;7.85;;;4.70;99.90;;;;;;4991640;28;20042;-83
2023/11/18 00:17:38;;;;;;;16.33;8.98;;;4.70;99.90;;;;;;4966164;28;20522;-84
2023/11/18 00:20:12;;;;;;;17.23;8.35;;;4.70;99.90;;;;;;4989602;28;20118;-82
2023/11/18 00:22:38;;;;;;;18.00;9.05;;;4.80;99.90;;;;;;4979661;28;20069;-81
2023/11/18 00:25:14;;;;;;;15.20;7.80;;;4.70;99.90;;;;;;4978065;28;20033;-82
2023/11/18 00:27:40;;;;;;;12.55;6.53;;;4.80;99.90;;;;;;4973966;28;20034;-82
2023/11/18 00:30:10;;;;;;;14.65;7.75;;;4.80;99.90;;;;;;4977937;28;20078;-83
2023/11/18 00:32:37;;;;;;;14.88;7.28;;;4.80;99.90;;;;;;4975584;28;20042;-82
2023/11/18 00:35:04;;;;;;;15.50;7.72;;;4.80;99.90;;;;;;4964434;28;20053;-82
2023/11/18 00:37:31;;;;;;;16.10;8.98;;;4.90;99.90;;;;;;4977887;28;20026;-82
2023/11/18 00:39:57;;;;;;;16.75;9.05;;;4.90;99.90;;;;;;4981078;28;20431;-82
2023/11/18 00:42:22;;;;;;;16.90;9.18;;;4.90;99.90;;;;;;4968173;28;20472;-80
2023/11/18 00:44:48;;;;;;;16.17;9.35;;;4.90;99.90;;;;;;4977170;28;20022;-85
2023/11/18 00:47:14;;;;;;;16.52;8.32;;;4.90;99.90;;;;;;4976268;28;20142;-80
2023/11/18 00:49:40;;;;;;;16.60;9.10;;;4.90;99.90;;;;;;4973993;28;20027;-80
2023/11/18 00:52:06;;;;;;;15.93;8.25;;;4.90;99.90;;;;;;4991808;28;20506;-83
2023/11/18 00:54:32;;;;;;;15.35;8.07;;;4.90;99.90;;;;;;4979840;28;20499;-82
2023/11/18 00:56:57;;;;;;;14.30;8.38;;;4.90;99.90;;;;;;4991779;28;20026;-81
2023/11/18 00:59:23;;;;;;;16.17;9.00;;;4.90;99.90;;;;;;4984125;28;20031;-83
2023/11/18 01:01:49;;;;;;;17.17;7.95;;;4.90;99.90;;;;;;4981375;28;20114;-87
2023/11/18 01:04:15;;;;;;;14.48;8.27;;;4.90;99.90;;;;;;4976648;28;20027;-81
2023/11/18 01:06:42;;;;;;;21.45;11.57;;;5.00;99.90;;;;;;4980024;28;20213;-80
2023/11/18 01:09:09;;;;;;;18.25;10.90;;;5.00;99.90;;;;;;4979259;28;20490;-82
2023/11/18 01:11:35;;;;;;;17.83;9.25;;;5.00;99.90;;;;;;4999566;28;20026;-86
2023/11/18 01:14:01;;;;;;;15.60;8.60;;;4.90;99.90;;;;;;4972083;28;20225;-84
2023/11/18 01:16:28;;;;;;;17.73;9.82;;;4.80;99.90;;;;;;4979877;28;20036;-84
2023/11/18 01:18:54;;;;;;;17.40;9.00;;;4.80;99.90;;;;;;4988601;28;20435;-83
2023/11/18 01:21:21;;;;;;;18.45;9.65;;;4.70;99.90;;;;;;4983017;28;20057;-89
2023/11/18 01:23:48;;;;;;;16.70;9.48;;;4.70;99.90;;;;;;4990412;28;20030;-85
2023/11/18 01:26:15;;;;;;;16.65;9.45;;;4.60;99.90;;;;;;4979758;28;20031;-86
2023/11/18 01:28:43;;;;;;;17.70;9.50;;;4.50;99.90;;;;;;4983067;28;20026;-83
2023/11/18 01:31:09;;;;;;;14.98;9.10;;;4.40;99.90;;;;;;4997373;28;20023;-82
2023/11/18 01:33:37;;;;;;;17.92;9.80;;;4.40;99.90;;;;;;4984373;28;20046;-82
2023/11/18 01:36:04;;;;;;;14.45;8.07;;;4.40;99.90;;;;;;4989722;28;20019;-85
2023/11/18 01:38:30;;;;;;;18.17;10.02;;;4.40;99.90;;;;;;4982391;28;20034;-84
2023/11/18 01:40:56;;;;;;;13.48;7.85;;;4.40;99.90;;;;;;4981225;28;20447;-85
2023/11/18 01:43:22;;;;;;;14.95;8.95;;;4.30;99.90;;;;;;4980925;28;20073;-82
2023/11/18 01:45:48;;;;;;;16.52;9.10;;;4.30;99.90;;;;;;4981095;28;20026;-83
2023/11/18 01:48:15;;;;;;;13.93;7.85;;;4.30;99.90;;;;;;4970252;28;20026;-83
2023/11/18 01:50:42;;;;;;;16.45;8.80;;;4.40;99.90;;;;;;4980351;28;20054;-85
2023/11/18 01:53:10;;;;;;;14.50;8.45;;;4.40;99.90;;;;;;4996272;28;20090;-85
2023/11/18 01:55:36;;;;;;;16.42;8.55;;;4.40;99.90;;;;;;4979340;28;20034;-82
2023/11/18 01:58:08;;;;;;;13.70;8.35;;;4.30;99.90;;;;;;4985121;28;20022;-85
2023/11/18 02:00:38;;;;;;;13.98;7.03;;;4.40;99.90;;;;;;4975780;28;20034;-83
2023/11/18 02:03:05;;;;;;;15.52;8.80;;;4.30;99.90;;;;;;4971420;28;20019;-84
2023/11/18 02:05:35;;;;;;;17.27;8.90;;;4.40;99.90;;;;;;4986783;28;20046;-88
2023/11/18 02:08:04;;;;;;;18.02;9.07;;;4.40;99.90;;;;;;4970258;28;20359;-89
2023/11/18 02:10:31;;;;;;;16.42;9.27;;;4.40;99.90;;;;;;4998516;28;20065;-88
2023/11/18 02:13:12;;;;;;;21.30;9.23;;;4.40;99.90;;;;;;4978733;28;20030;-81
2023/11/18 02:15:39;;;;;;;17.17;9.30;;;4.40;99.90;;;;;;4991473;28;20458;-82
2023/11/18 02:18:09;;;;;;;16.70;8.27;;;4.40;99.90;;;;;;4964700;28;20077;-88
2023/11/18 02:20:35;;;;;;;;;;;4.40;99.90;;;;;;4984813;28;20054;-88
2023/11/18 02:23:02;;;;;;;13.93;7.22;;;4.40;99.90;;;;;;4997379;28;19932;-87
2023/11/18 02:25:32;;;;;;;11.55;5.90;;;4.40;99.90;;;;;;4978030;28;20022;-84
2023/11/18 02:27:58;;;;;;;12.73;7.22;;;4.40;99.90;;;;;;4984512;28;20410;-87
2023/11/18 02:30:24;;;;;;;12.68;7.55;;;4.40;99.90;;;;;;4989107;28;20160;-82
2023/11/18 02:33:07;;;;;;;13.07;8.00;;;4.40;99.90;;;;;;4970490;28;20027;-82
2023/11/18 02:35:38;;;;;;;16.92;8.50;;;4.40;99.90;;;;;;4968204;28;20055;-83
2023/11/18 02:38:10;;;;;;;16.27;8.98;;;4.50;99.90;;;;;;4979409;28;20468;-82
2023/11/18 02:40:41;;;;;;;17.67;9.35;;;4.40;99.90;;;;;;4994868;28;20034;-82
2023/11/18 02:43:09;;;;;;;16.95;8.30;;;4.50;99.90;;;;;;4963144;28;20033;-82
2023/11/18 02:45:35;;;;;;;15.48;9.20;;;4.50;99.90;;;;;;4978447;28;20395;-84
2023/11/18 02:48:02;;;;;;;18.00;9.20;;;4.50;99.90;;;;;;4992751;28;20019;-85
2023/11/18 02:50:29;;;;;;;14.45;8.48;;;4.50;99.90;;;;;;4970640;28;20051;-86
2023/11/18 02:52:55;;;;;;;13.80;7.95;;;4.50;99.90;;;;;;4987176;28;20039;-83
2023/11/18 02:55:24;;;;;;;12.70;6.93;;;4.40;99.90;;;;;;4983107;28;20053;-85
2023/11/18 02:57:51;;;;;;;14.93;8.17;;;4.50;99.90;;;;;;4976410;28;20027;-82
2023/11/18 03:00:23;;;;;;;16.90;9.70;;;4.40;99.90;;;;;;4981642;28;20293;-80
2023/11/18 03:02:51;;;;;;;11.10;6.60;;;4.40;99.90;;;;;;4965034;28;20019;-84
2023/11/18 03:05:18;;;;;;;14.23;8.63;;;4.40;99.90;;;;;;4980826;28;20066;-84
2023/11/18 03:07:47;;;;;;;15.82;8.95;;;4.50;99.90;;;;;;4969811;28;20026;-81
2023/11/18 03:10:20;;;;;;;13.35;8.00;;;4.40;99.90;;;;;;4971260;28;20027;-87
2023/11/18 03:12:47;;;;;;;14.15;8.18;;;4.40;99.90;;;;;;4995759;28;20384;-83
2023/11/18 03:15:13;;;;;;;17.50;9.52;;;4.50;99.90;;;;;;4982340;28;20049;-82
2023/11/18 03:17:39;;;;;;;12.60;7.70;;;4.50;99.90;;;;;;4996503;28;20034;-84
2023/11/18 03:20:08;;;;;;;15.38;8.80;;;4.50;99.90;;;;;;4995910;28;20530;-88
2023/11/18 03:22:34;;;;;;;14.90;8.50;;;4.50;99.90;;;;;;4993958;28;20037;-91
2023/11/18 03:25:00;;;;;;;15.57;8.70;;;4.50;99.90;;;;;;4979969;28;20031;-82
2023/11/18 03:27:26;;;;;;;16.50;8.45;;;4.50;99.90;;;;;;4997990;28;20069;-81
2023/11/18 03:29:52;;;;;;;13.98;8.43;;;4.50;99.90;;;;;;4987085;28;20026;-86
2023/11/18 03:32:17;;;;;;;12.82;7.82;;;4.50;99.90;;;;;;4995834;28;20542;-82
2023/11/18 03:34:44;;;;;;;16.63;9.48;;;4.50;99.90;;;;;;4992136;28;20039;-82
2023/11/18 03:37:10;;;;;;;14.25;8.13;;;4.60;99.90;;;;;;4968292;28;20019;-88
2023/11/18 03:39:36;;;;;;;14.98;7.95;;;4.60;99.90;;;;;;4990416;28;20104;-86
2023/11/18 03:42:01;;;;;;;17.20;9.57;;;4.60;99.90;;;;;;4983849;28;20033;-86
2023/11/18 03:44:27;;;;;;;14.85;7.95;;;4.70;99.90;;;;;;4991731;28;20030;-82
2023/11/18 03:46:53;;;;;;;14.13;8.23;;;4.70;99.90;;;;;;4994491;28;20030;-81
2023/11/18 03:49:20;;;;;;;14.48;8.02;;;4.60;99.90;;;;;;4980794;28;20034;-81
2023/11/18 03:51:46;;;;;;;15.80;8.15;;;4.70;99.90;;;;;;4978930;28;20111;-81
2023/11/18 03:54:13;;;;;;;16.15;8.23;;;4.70;99.90;;;;;;4992057;28;20129;-82
2023/11/18 03:56:40;;;;;;;14.45;8.43;;;4.70;99.90;;;;;;4993982;28;20070;-86
2023/11/18 03:59:05;;;;;;;14.85;7.95;;;4.70;99.90;;;;;;4985195;28;20050;-80
2023/11/18 04:01:32;;;;;;;14.95;7.88;;;4.70;99.90;;;;;;4992014;28;20497;-85
2023/11/18 04:03:58;;;;;;;13.32;7.63;;;4.60;99.90;;;;;;4996534;28;20073;-83
2023/11/18 04:06:24;;;;;;;17.00;9.00;;;4.70;99.90;;;;;;4992956;28;20043;-81
2023/11/18 04:08:50;;;;;;;13.80;7.47;;;4.70;99.90;;;;;;4982625;28;20034;-88
2023/11/18 04:11:16;;;;;;;13.00;8.13;;;4.70;99.90;;;;;;4993276;28;20030;-81
2023/11/18 04:13:42;;;;;;;16.88;9.45;;;4.70;99.90;;;;;;4992268;28;20030;-81
2023/11/18 04:16:12;;;;;;;15.93;9.35;;;4.80;99.90;;;;;;4963523;28;20067;-85
2023/11/18 04:18:42;;;;;;;14.82;8.65;;;4.80;99.90;;;;;;4977002;28;20467;-85
2023/11/18 04:21:09;;;;;;;13.70;7.72;;;4.80;99.90;;;;;;4969747;28;20034;-83
2023/11/18 04:23:39;;;;;;;18.25;9.57;;;4.80;99.90;;;;;;4961878;28;20402;-81
2023/11/18 04:26:07;;;;;;;17.25;9.65;;;4.80;99.90;;;;;;4971343;28;20126;-81
2023/11/18 04:28:36;;;;;;;16.25;9.40;;;4.90;99.90;;;;;;4974689;28;20042;-82
2023/11/18 04:31:02;;;;;;;16.23;9.57;;;4.90;99.90;;;;;;4989712;28;20065;-86
2023/11/18 04:33:29;;;;;;;18.63;9.90;;;4.90;99.90;;;;;;4958629;28;20391;-81
2023/11/18 04:35:57;;;;;;;20.70;11.57;;;4.90;99.90;;;;;;4990701;28;20161;-82
2023/11/18 04:38:23;;;;;;;25.00;13.40;;;4.90;99.90;;;;;;4975498;28;20689;-82
2023/11/18 04:40:48;;;;;;;23.38;12.93;;;4.90;99.90;;;;;;4962958;28;20040;-81
2023/11/18 04:43:15;;;;;;;23.42;12.70;;;4.90;99.90;;;;;;4973295;28;20121;-85
2023/11/18 04:45:44;;;;;;;18.38;10.40;;;4.90;99.90;;;;;;4963516;28;20072;-84
2023/11/18 04:48:12;;;;;;;20.80;11.55;;;4.90;99.90;;;;;;4957593;28;20030;-85
2023/11/18 04:50:39;;;;;;;21.70;11.77;;;4.90;99.90;;;;;;4972711;28;20045;-84
2023/11/18 04:53:08;;;;;;;20.02;11.23;;;4.90;99.90;;;;;;4974438;28;20771;-88
2023/11/18 04:55:34;;;;;;;22.02;11.75;;;4.90;99.90;;;;;;4973164;28;20045;-82
2023/11/18 04:58:00;;;;;;;18.77;10.13;;;4.90;99.90;;;;;;4972951;28;20054;-87
2023/11/18 05:00:27;;;;;;;17.25;10.32;;;4.80;99.90;;;;;;4972314;28;20118;-86
2023/11/18 05:02:54;;;;;;;17.77;11.18;;;4.90;99.90;;;;;;4973478;28;20034;-84
2023/11/18 05:05:20;;;;;;;15.57;8.95;;;4.80;99.90;;;;;;4975551;28;20046;-83
2023/11/18 05:07:45;;;;;;;18.08;9.95;;;4.80;99.90;;;;;;4958021;28;20077;-84
2023/11/18 05:10:11;;;;;;;16.05;8.95;;;4.90;99.90;;;;;;4956715;28;20057;-85
2023/11/18 05:12:38;;;;;;;13.93;7.68;;;4.80;99.90;;;;;;4973219;28;20038;-86
2023/11/18 05:15:06;;;;;;;15.73;8.27;;;4.90;99.90;;;;;;4973080;28;20047;-81
2023/11/18 05:17:31;;;;;;;16.80;8.98;;;4.80;99.90;;;;;;4957052;28;20058;-83
2023/11/18 05:19:57;;;;;;;19.27;11.15;;;4.80;99.90;;;;;;4973365;28;20117;-85
2023/11/18 05:22:23;;;;;;;17.65;9.77;;;4.80;99.90;;;;;;4973741;28;20121;-84
2023/11/18 05:24:49;;;;;;;16.73;9.57;;;4.80;99.90;;;;;;4950176;28;20055;-83
2023/11/18 05:27:15;;;;;;;13.52;8.05;;;4.80;99.90;;;;;;4957016;28;20049;-82
2023/11/18 05:29:53;;;;;;;16.77;9.73;;;4.80;99.90;;;;;;4977562;28;20062;-83
2023/11/18 05:32:25;;;;;;;17.75;9.68;;;4.80;99.90;;;;;;4961972;28;20031;-84
2023/11/18 05:34:54;;;;;;;15.38;9.10;;;4.80;99.90;;;;;;4994635;28;20487;-83
2023/11/18 05:37:21;;;;;;;18.02;10.25;;;4.70;99.90;;;;;;4978544;28;20022;-83
2023/11/18 05:39:49;;;;;;;15.82;8.95;;;4.70;99.90;;;;;;4979852;28;20035;-80
2023/11/18 05:42:15;;;;;;;15.07;8.45;;;4.70;99.90;;;;;;4974688;28;20502;-83
2023/11/18 05:44:42;;;;;;;16.83;9.23;;;4.70;99.90;;;;;;4975370;28;20046;-84
2023/11/18 05:47:11;;;;;;;16.27;9.00;;;4.70;99.90;;;;;;4985748;28;20049;-82
2023/11/18 05:49:38;;;;;;;16.77;9.88;;;4.70;99.90;;;;;;4977151;28;20272;-83
2023/11/18 05:52:04;;;;;;;11.77;6.85;;;4.70;99.90;;;;;;4964578;28;20096;-83
2023/11/18 05:54:30;;;;;;;14.25;8.25;;;4.60;99.90;;;;;;4995899;28;20039;-81
2023/11/18 05:56:56;;;;;;;15.73;9.68;;;4.60;99.90;;;;;;4976204;28;20019;-85
2023/11/18 05:59:23;;;;;;;15.50;8.50;;;4.60;99.90;;;;;;4994160;28;20027;-82
2023/11/18 06:01:49;;;;;;;14.55;7.88;;;4.60;99.90;;;;;;4996860;28;20101;-81
2023/11/18 06:04:15;;;;;;;13.40;7.05;;;4.60;99.90;;;;;;4979859;28;20065;-82
2023/11/18 06:06:42;;;;;;;12.07;7.53;;;4.70;99.90;;;;;;4981415;28;20082;-81
2023/11/18 06:09:17;;;;;;;10.65;6.43;;;4.70;99.90;;;;;;4977096;28;20030;-82
2023/11/18 06:11:45;;;;;;;10.85;6.75;;;4.60;99.90;;;;;;4993968;28;20034;-83
2023/11/18 06:14:12;;;;;;;14.68;8.20;;;4.60;99.90;;;;;;4981304;28;20101;-83
2023/11/18 06:16:39;;;;;;;15.32;9.00;;;4.60;99.90;;;;;;4983830;28;20122;-81
2023/11/18 06:19:05;;;;;;;12.63;7.50;;;4.60;99.90;;;;;;4981948;28;20099;-83
2023/11/18 06:21:31;;;;;;;12.40;6.35;;;4.70;99.90;;;;;;4967213;28;20031;-82
2023/11/18 06:23:58;;;;;;;15.20;8.55;;;4.60;99.90;;;;;;4979813;28;20042;-84
2023/11/18 06:26:26;;;;;;;15.40;9.13;;;4.60;99.90;;;;;;4987954;28;20088;-84
2023/11/18 06:28:53;;;;;;;12.48;7.38;;;4.60;99.90;;;;;;4976999;28;20042;-83
2023/11/18 06:31:20;;;;;;;12.43;7.32;;;4.60;99.90;;;;;;4983009;28;20031;-82
2023/11/18 06:33:47;;;;;;;15.18;8.80;;;4.60;99.90;;;;;;4988100;28;20038;-84
2023/11/18 06:36:16;;;;;;;15.52;8.32;;;4.60;99.90;;;;;;4969062;28;20047;-82
2023/11/18 06:38:46;;;;;;;16.50;8.10;;;4.60;99.90;;;;;;4977981;28;20038;-82
2023/11/18 06:41:13;;;;;;;13.40;7.53;;;4.60;99.90;;;;;;4996987;28;20058;-81
2023/11/18 06:46:22;;;;;;;13.63;7.57;;;4.60;99.90;;;;;;4996178;28;20030;-82
2023/11/18 06:48:49;;;;;;;14.02;8.25;;;4.60;99.90;;;;;;4977560;28;20034;-84
2023/11/18 06:51:15;;;;;;;12.65;6.80;;;4.60;99.90;;;;;;4996398;28;20031;-85
2023/11/18 06:53:43;;;;;;;14.05;8.13;;;4.60;99.90;;;;;;4971997;28;20096;-82
2023/11/18 06:56:09;;;;;;;14.45;7.97;;;4.60;99.90;;;;;;4984455;28;20280;-84
2023/11/18 06:58:38;;;;;;;15.98;8.95;;;4.70;99.90;;;;;;4977078;28;20273;-83
2023/11/18 07:01:05;;;;;;;15.70;9.40;;;4.60;99.90;;;;;;4968615;28;22296;-84
2023/11/18 07:03:31;;;;;;;14.13;8.10;;;4.60;99.90;;;;;;4998118;28;20050;-81
2023/11/18 07:05:57;;;;;;;14.68;7.97;;;4.60;99.90;;;;;;4990844;28;20051;-85
2023/11/18 07:08:24;;;;;;;14.38;8.18;;;4.60;99.90;;;;;;4980124;28;20330;-81
2023/11/18 07:10:50;;;;;;;15.63;9.10;;;4.70;99.90;;;;;;4979374;28;20030;-82
2023/11/18 07:13:16;;;;;;;18.90;10.98;;;4.70;99.90;;;;;;4966813;28;20366;-82
2023/11/18 07:15:42;;;;;;;15.40;8.43;;;4.70;99.90;;;;;;4983325;28;20077;-86
2023/11/18 07:18:08;;;;;;;14.88;7.97;;;4.70;99.90;;;;;;4998916;28;20117;-89
2023/11/18 07:20:35;;;;;;;14.77;8.18;;;4.70;99.90;;;;;;4997356;28;20026;-84
2023/11/18 07:23:00;;;;;;;14.35;8.55;;;4.70;99.90;;;;;;4984149;28;20387;-87
2023/11/18 07:25:27;;;;;;;12.90;7.38;;;4.80;99.90;;;;;;4978885;28;20042;-82
2023/11/18 07:27:53;;;;;;;11.32;6.78;;;4.80;99.90;;;;;;4988014;28;20493;-84
2023/11/18 07:30:19;;;;;;;14.32;7.45;;;4.80;99.90;;;;;;4982463;28;20034;-84
2023/11/18 07:32:45;;;;;;;14.52;7.78;;;4.80;99.90;;;;;;4996835;28;20039;-82
2023/11/18 07:35:11;;;;;;;13.02;6.97;;;4.80;99.90;;;;;;4982716;28;20543;-82
2023/11/18 07:37:37;;;;;;;12.10;6.55;;;4.80;99.90;;;;;;4981573;28;20117;-88
2023/11/18 07:40:05;;;;;;;11.75;6.00;;;4.80;99.90;;;;;;4975275;28;20110;-90
2023/11/18 07:42:34;;;;;;;17.60;8.27;;;4.80;99.90;;;;;;4966958;28;20046;-85
2023/11/18 07:45:04;;;;;;;18.13;8.20;;;4.90;99.90;;;;;;4969670;28;20039;-84
2023/11/18 07:47:34;;;;;;;15.38;7.78;;;4.90;99.90;;;;;;4986016;28;20027;-81
2023/11/18 07:50:04;;;;;;;15.48;8.52;;;4.90;99.90;;;;;;4983955;28;20058;-85
2023/11/18 07:52:29;;;;;;;19.20;8.70;;;5.00;99.90;;;;;;4970607;28;20419;-87
2023/11/18 07:54:55;;;;;;;15.00;8.60;;;5.00;99.90;;;;;;4980300;28;20057;-79
2023/11/18 07:57:21;;;;;;;15.60;8.13;;;5.10;99.90;;;;;;4976535;28;20085;-84
2023/11/18 07:59:46;;;;;;;15.00;7.90;;;5.00;99.90;;;;;;4966377;28;20026;-81
2023/11/18 08:02:14;;;;;;;19.08;8.43;;;5.10;99.90;;;;;;4988581;28;20121;-83
2023/11/18 08:04:50;;;;;;;16.08;8.27;;;5.10;99.90;;;;;;4977061;28;20114;-82
2023/11/18 08:07:15;;;;;;;20.20;9.45;;;5.10;99.90;;;;;;4967114;28;20031;-87
2023/11/18 08:09:43;;;;;;;21.58;9.88;;;5.10;99.90;;;;;;4985625;28;20042;-83
2023/11/18 08:12:09;;;;;;;21.40;11.05;;;5.10;99.90;;;;;;4978853;28;20050;-90
2023/11/18 08:14:35;;;;;;;19.90;9.82;;;5.10;99.90;;;;;;4966333;28;20045;-84
2023/11/18 08:17:00;;;;;;;17.13;8.95;;;5.10;99.90;;;;;;4982466;28;20062;-90
2023/11/18 08:19:26;;;;;;;21.67;10.23;;;5.10;99.90;;;;;;4986578;28;20057;-84
2023/11/18 08:21:52;;;;;;;16.85;8.20;;;5.10;99.90;;;;;;4985174;28;20055;-83
2023/11/18 08:24:18;;;;;;;20.23;9.38;;;5.10;99.90;;;;;;5000886;28;20058;-84
2023/11/18 08:26:46;;;;;;;21.45;10.50;;;5.10;99.90;;;;;;4980063;28;20066;-85
2023/11/18 08:29:12;;;;;;;22.05;10.68;;;5.10;99.90;;;;;;4979878;28;20027;-82
2023/11/18 08:31:39;;;;;;;21.15;10.23;;;5.10;99.90;;;;;;4982001;28;20050;-85
2023/11/18 08:34:05;;;;;;;22.70;11.32;;;5.10;99.90;;;;;;4968800;28;20034;-85
2023/11/18 08:36:33;;;;;;;23.67;11.50;;;5.10;99.90;;;;;;4969858;28;20109;-84
2023/11/18 08:38:59;;;;;;;22.67;11.55;;;5.20;99.90;;;;;;4967551;28;20336;-80
2023/11/18 08:41:25;;;;;;;23.52;11.23;;;5.10;99.90;;;;;;4973409;28;20035;-84
2023/11/18 08:43:51;;;;;;;23.40;11.27;;;5.10;99.90;;;;;;4978688;28;20030;-85
2023/11/18 08:46:17;;;;;;;24.27;11.60;;;5.10;99.90;;;;;;4973349;28;20164;-86
2023/11/18 08:48:44;;;;;;;19.40;10.10;;;5.20;99.90;;;;;;4969574;28;20142;-86
2023/11/18 08:51:12;;;;;;;18.77;8.85;;;5.20;99.90;;;;;;4976826;28;20067;-85
2023/11/18 08:53:41;;;;;;;19.50;8.98;;;5.20;99.90;;;;;;4980993;28;20082;-86
2023/11/18 08:56:16;;;;;;;17.42;7.78;;;5.20;99.90;;;;;;4988926;28;20026;-83
2023/11/18 08:58:44;;;;;;;17.73;8.48;;;5.30;99.90;;;;;;4956361;28;20023;-84
2023/11/18 09:01:14;;;;;;;13.35;6.22;;;5.30;99.90;;;;;;4976162;28;20045;-85
2023/11/18 09:03:48;;;;;;;17.30;7.72;;;5.30;99.90;;;;;;4957452;28;20479;-86
2023/11/18 09:06:17;;;;;;;16.35;7.75;;;5.40;99.90;;;;;;4975599;28;20051;-86
2023/11/18 09:08:44;;;;;;;18.17;8.55;;;5.50;99.90;;;;;;4979811;28;20105;-83
2023/11/18 09:11:16;;;;;;;16.73;7.95;;;5.50;99.90;;;;;;4977655;28;20031;-86
2023/11/18 09:13:53;;;;;;;17.58;8.88;;;5.50;99.90;;;;;;4958172;28;20038;-88
2023/11/18 09:16:22;;;;;;;15.18;7.35;;;5.60;99.90;;;;;;4979716;28;20482;-82
2023/11/18 09:18:48;;;;;;;14.57;7.43;;;5.60;99.90;;;;;;4974613;28;20046;-82
2023/11/18 09:21:14;;;;;;;13.88;7.18;;;5.60;99.90;;;;;;4979476;28;20035;-83
2023/11/18 09:23:41;;;;;;;15.10;6.68;;;5.70;99.90;;;;;;4963884;28;20038;-83
2023/11/18 09:26:10;;;;;;;12.70;6.18;;;5.70;99.90;;;;;;4974521;28;20045;-85
2023/11/18 09:28:36;;;;;;;13.38;6.80;;;5.80;99.90;;;;;;4979049;28;20109;-86
2023/11/18 09:31:03;;;;;;;14.57;7.60;;;5.80;99.90;;;;;;4962867;28;20030;-88
2023/11/18 09:33:33;;;;;;;12.65;6.20;;;5.80;99.90;;;;;;4965246;28;20030;-84
2023/11/18 09:36:07;;;;;;;12.52;5.32;;;5.90;99.90;;;;;;4979357;28;20073;-85
2023/11/18 09:38:37;;;;;;;9.88;4.38;;;5.90;99.90;;;;;;4983060;28;20089;-86
2023/11/18 09:41:12;;;;;;;15.02;6.65;;;5.90;99.90;;;;;;4985949;28;20113;-85
2023/11/18 09:43:43;;;;;;;13.07;6.65;;;5.90;99.90;;;;;;4967072;28;20424;-85
2023/11/18 09:46:21;;;;;;;13.48;6.20;;;6.00;99.90;;;;;;4987143;28;20043;-87
2023/11/18 09:48:59;;;;;;;14.63;6.53;;;6.00;99.90;;;;;;4991472;28;20030;-88
2023/11/18 09:51:34;;;;;;;14.55;6.45;;;6.00;99.90;;;;;;4981038;28;20022;-84
2023/11/18 09:54:05;;;;;;;13.57;5.93;;;6.00;99.90;;;;;;4977384;28;20117;-87
2023/11/18 09:57:08;;;;;;;9.25;5.03;;;6.10;99.90;;;;;;4981444;28;20356;-83
2023/11/18 09:59:44;;;;;;;8.32;4.35;;;6.10;99.90;;;;;;4981893;28;20034;-91
2023/11/18 10:02:10;;;;;;;13.90;6.85;;;6.20;99.90;;;;;;4977262;28;20038;-87
2023/11/18 10:04:40;;;;;;;12.02;6.07;;;6.20;99.90;;;;;;4965445;28;20452;-84
2023/11/18 10:07:11;;;;;;;11.00;5.65;;;6.20;99.90;;;;;;4977209;28;20034;-87
2023/11/18 10:09:39;;;;;;;14.23;6.43;;;6.20;99.90;;;;;;4964772;28;20028;-88
2023/11/18 10:12:07;;;;;;;12.23;5.57;;;6.20;99.90;;;;;;4981444;28;20034;-83
2023/11/18 10:14:41;;;;;;;12.55;5.65;;;6.30;99.90;;;;;;4976961;28;20108;-88
2023/11/18 10:17:07;;;;;;;10.48;4.75;;;6.20;99.90;;;;;;4965951;28;20464;-88
2023/11/18 10:19:56;;;;;;;9.98;4.57;;;6.20;99.90;;;;;;4976000;28;20092;-86
2023/11/18 10:22:24;;;;;;;11.60;6.00;;;6.20;99.90;;;;;;4975658;28;20142;-87
2023/11/18 10:24:54;;;;;;;14.68;6.32;;;6.20;99.90;;;;;;4958738;28;20129;-89
2023/11/18 10:27:25;;;;;;;13.85;7.15;;;6.20;99.90;;;;;;4967344;28;20030;-85
2023/11/18 10:29:55;;;;;;;11.55;4.90;;;6.20;99.90;;;;;;4962751;28;20038;-87
2023/11/18 10:32:22;;;;;;;13.00;5.97;;;6.20;99.90;;;;;;4975938;28;20030;-83
2023/11/18 10:34:51;;;;;;;12.27;5.97;;;6.20;99.90;;;;;;4961935;28;20153;-85
2023/11/18 10:37:17;;;;;;;11.43;5.80;;;6.30;99.90;;;;;;4980733;28;20058;-87
2023/11/18 10:39:48;;;;;;;12.43;6.22;;;6.20;99.90;;;;;;4991522;28;20069;-83
2023/11/18 10:42:17;;;;;;;9.63;5.15;;;6.30;99.90;;;;;;4991070;28;20042;-83
2023/11/18 10:44:57;;;;;;;12.93;6.38;;;6.30;99.90;;;;;;4982513;28;20030;-83
2023/11/18 10:47:28;;;;;;;14.83;6.20;;;6.30;99.90;;;;;;4992497;28;20427;-83
2023/11/18 10:49:57;;;;;;;10.05;5.15;;;6.30;99.90;;;;;;4973158;28;20048;-90
2023/11/18 10:52:26;;;;;;;11.02;5.85;;;6.30;99.90;;;;;;4992596;28;20471;-86
2023/11/18 10:54:55;;;;;;;10.82;6.00;;;6.30;99.90;;;;;;4961782;28;20045;-85
2023/11/18 10:57:22;;;;;;;12.18;6.40;;;6.30;99.90;;;;;;4962047;28;20041;-87
2023/11/18 11:00:14;;;;;;;13.43;6.93;;;6.30;99.90;;;;;;4975215;28;20136;-82
2023/11/18 11:02:41;;;;;;;10.25;4.57;;;6.30;99.90;;;;;;4960170;28;20387;-82
2023/11/18 11:05:17;;;;;;;7.28;3.83;;;6.30;99.90;;;;;;4978531;28;20081;-84
2023/11/18 11:07:43;;;;;;;8.70;4.20;;;6.30;99.90;;;;;;4968622;28;20035;-87
2023/11/18 11:10:10;;;;;;;6.93;2.95;;;6.30;99.90;;;;;;4990923;28;20085;-88
2023/11/18 11:12:51;;;;;;;8.30;3.80;;;6.40;99.90;;;;;;4969044;28;20720;-86
2023/11/18 11:15:31;;;;;;;6.18;3.25;;;6.40;99.90;;;;;;4977462;28;20046;-88
2023/11/18 11:18:08;;;;;;;7.55;3.92;;;6.40;99.90;;;;;;4979860;28;20027;-83
2023/11/18 11:20:44;;;;;;;9.57;3.83;;;6.50;99.90;;;;;;4993432;28;20041;-83
2023/11/18 11:23:28;;;;;;;7.00;3.65;;;6.50;99.90;;;;;;4968781;28;20077;-89
2023/11/18 11:25:59;;;;;;;9.60;3.88;;;6.50;99.90;;;;;;4972715;28;20118;-88
2023/11/18 11:28:33;;;;;;;7.65;3.55;;;6.50;99.90;;;;;;4991193;28;20062;-88
2023/11/18 11:31:14;;;;;;;9.48;3.63;;;6.50;99.90;;;;;;4966043;28;20030;-90
2023/11/18 11:33:46;;;;;;;10.00;4.95;;;6.50;99.90;;;;;;4976367;28;20109;-84
2023/11/18 11:36:23;;;;;;;8.40;3.85;;;6.50;99.90;;;;;;4975208;28;20034;-82
2023/11/18 11:38:55;;;;;;;6.68;3.42;;;6.50;99.90;;;;;;4981405;28;20427;-85
2023/11/18 11:41:26;;;;;;;8.13;4.45;;;6.50;99.90;;;;;;4981002;28;20102;-84
2023/11/18 11:43:58;;;;;;;7.65;3.55;;;6.50;99.90;;;;;;4982573;28;20069;-83
2023/11/18 11:46:32;;;;;;;4.55;2.05;;;6.50;99.90;;;;;;4971415;28;20085;-84
2023/11/18 11:49:08;;;;;;;8.35;3.80;;;6.50;99.90;;;;;;4972480;28;20158;-82
2023/11/18 11:51:43;;;;;;;6.70;3.13;;;6.60;99.90;;;;;;4971922;28;20484;-85
2023/11/18 11:54:20;;;;;;;10.55;4.93;;;6.60;99.90;;;;;;4987102;28;20097;-82
2023/11/18 11:56:59;;;;;;;8.93;3.08;;;6.60;99.90;;;;;;4971786;28;20132;-82
2023/11/18 11:59:55;;;;;;;7.85;3.72;;;6.60;99.90;;;;;;4970383;28;20034;-81
2023/11/18 12:02:28;;;;;;;7.10;3.30;;;6.60;99.90;;;;;;4963377;28;20034;-83
2023/11/18 12:04:58;;;;;;;9.07;3.13;;;6.60;99.90;;;;;;4962143;28;20727;-82
2023/11/18 12:07:27;;;;;;;7.72;2.75;;;6.60;99.90;;;;;;4953526;28;20045;-82
2023/11/18 12:10:00;;;;;;;5.17;1.87;;;6.70;99.90;;;;;;4971058;28;20096;-82
2023/11/18 12:12:27;;;;;;;6.35;2.63;;;6.70;99.90;;;;;;4969490;28;20709;-82
2023/11/18 12:15:17;;;;;;;4.00;2.08;;;6.70;99.90;;;;;;4971137;28;20052;-82
2023/11/18 12:17:52;;;;;;;6.97;2.72;;;6.70;99.90;;;;;;4969499;28;20030;-82
2023/11/18 12:20:42;;;;;;;6.03;2.47;;;6.70;99.90;;;;;;4978750;28;20049;-85
2023/11/18 12:23:14;;;;;;;5.30;2.08;;;6.80;99.90;;;;;;4963527;28;20717;-82
2023/11/18 12:25:41;;;;;;;5.82;2.75;;;6.80;99.90;;;;;;4975767;28;20640;-82
2023/11/18 12:28:08;;;;;;;5.45;2.67;;;6.80;99.90;;;;;;4969792;28;20279;-82
2023/11/18 12:30:36;;;;;;;5.03;2.58;;;6.80;99.90;;;;;;4985785;28;20030;-89
2023/11/18 12:33:10;;;;;;;5.97;2.58;;;6.80;99.90;;;;;;4960676;28;20034;-83
2023/11/18 12:35:51;;;;;;;8.45;3.63;;;6.80;99.90;;;;;;4968830;28;20054;-82
2023/11/18 12:38:57;;;;;;;7.50;3.53;;;6.80;99.90;;;;;;4970462;28;20040;-83
2023/11/18 12:41:42;;;;;;;6.03;3.05;;;6.90;99.90;;;;;;4977322;28;20228;-80
2023/11/18 12:44:35;;;;;;;8.80;3.35;;;6.90;99.90;;;;;;4971164;28;20117;-87
2023/11/18 12:47:21;;;;;;;9.23;3.33;;;6.90;99.90;;;;;;4969738;28;20034;-81
2023/11/18 12:49:54;;;;;;;5.45;2.92;;;6.90;99.90;;;;;;4970979;28;20038;-81
2023/11/18 12:52:21;;;;;;;6.93;2.42;;;6.90;99.90;;;;;;4970450;28;20034;-83
2023/11/18 12:54:50;;;;;;;6.65;2.25;;;7.00;99.90;;;;;;4976612;28;20070;-83
2023/11/18 12:57:31;;;;;;;9.50;2.47;;;7.00;99.90;;;;;;4967417;28;20463;-84
2023/11/18 12:59:56;;;;;;;;;;;7.00;99.90;;;;;;4986776;28;20045;-83